createdAt,value
2018-08-28T00:01:33.930Z,2.47
2018-08-28T00:04:03.850Z,1.90
2018-08-28T00:06:32.922Z,2.23
2018-08-28T00:09:02.253Z,2.53
2018-08-28T00:11:31.757Z,2.50
2018-08-28T00:14:00.113Z,2.23
2018-08-28T00:16:29.001Z,2.43
2018-08-28T00:18:57.244Z,2.10
2018-08-28T00:21:25.562Z,2.43
2018-08-28T00:23:53.845Z,2.10
2018-08-28T00:26:23.341Z,2.23
2018-08-28T00:28:51.417Z,1.97
2018-08-28T00:31:20.798Z,2.30
2018-08-28T00:33:49.085Z,2.20
2018-08-28T00:36:18.386Z,2.17
2018-08-28T00:38:48.510Z,1.97
2018-08-28T00:41:17.570Z,2.20
2018-08-28T00:43:45.985Z,2.20
2018-08-28T00:46:14.298Z,2.15
2018-08-28T00:48:42.497Z,2.30
2018-08-28T00:51:10.709Z,2.15
2018-08-28T00:53:39.602Z,2.10
2018-08-28T00:56:08.437Z,2.23
2018-08-28T00:58:36.910Z,1.77
2018-08-28T01:01:05.282Z,2.20
2018-08-28T01:03:33.693Z,1.93
2018-08-28T01:06:02.130Z,1.83
2018-08-28T01:08:31.826Z,2.03
2018-08-28T01:11:00.642Z,1.83
2018-08-28T01:13:28.777Z,1.93
2018-08-28T01:15:57.272Z,2.43
2018-08-28T01:18:25.893Z,2.20
2018-08-28T01:20:55.077Z,2.23
2018-08-28T01:23:24.766Z,2.60
2018-08-28T01:25:53.897Z,1.73
2018-08-28T01:28:22.045Z,1.95
2018-08-28T01:30:50.560Z,2.20
2018-08-28T01:33:18.714Z,2.50
2018-08-28T01:35:46.914Z,2.00
2018-08-28T01:38:15.269Z,2.37
2018-08-28T01:40:43.373Z,2.23
2018-08-28T01:43:17.465Z,2.17
2018-08-28T01:45:45.938Z,1.75
2018-08-28T01:48:14.073Z,2.20
2018-08-28T01:50:42.431Z,2.40
2018-08-28T01:53:11.486Z,2.53
2018-08-28T01:55:40.529Z,2.10
2018-08-28T01:58:09.301Z,2.60
2018-08-28T02:00:37.949Z,2.27
2018-08-28T02:03:06.769Z,2.60
2018-08-28T02:05:35.305Z,2.03
2018-08-28T02:08:03.783Z,2.17
2018-08-28T02:10:32.470Z,1.83
2018-08-28T02:13:00.876Z,2.37
2018-08-28T02:15:30.893Z,2.23
2018-08-28T02:17:59.890Z,2.20
2018-08-28T02:20:28.658Z,2.67
2018-08-28T02:22:57.009Z,2.03
2018-08-28T02:25:25.451Z,2.07
2018-08-28T02:27:53.958Z,2.37
2018-08-28T02:30:22.272Z,2.33
2018-08-28T02:32:50.862Z,2.33
2018-08-28T02:35:19.081Z,2.27
2018-08-28T02:37:47.242Z,2.53
2018-08-28T02:40:16.294Z,2.07
2018-08-28T02:42:44.521Z,2.97
2018-08-28T02:45:13.365Z,3.07
2018-08-28T02:47:42.127Z,2.40
2018-08-28T02:50:10.363Z,2.30
2018-08-28T02:52:39.537Z,2.67
2018-08-28T02:55:08.434Z,2.40
2018-08-28T02:57:36.641Z,2.30
2018-08-28T03:00:05.566Z,2.60
2018-08-28T03:02:33.827Z,2.43
2018-08-28T03:05:02.605Z,2.47
2018-08-28T03:07:31.866Z,2.63
2018-08-28T03:10:00.646Z,2.53
2018-08-28T03:12:29.527Z,2.40
2018-08-28T03:14:58.736Z,2.57
2018-08-28T03:17:27.305Z,2.85
2018-08-28T03:19:56.005Z,2.33
2018-08-28T03:22:24.499Z,2.60
2018-08-28T03:24:53.126Z,2.07
2018-08-28T03:27:22.086Z,2.30
2018-08-28T03:29:50.282Z,2.50
2018-08-28T03:32:18.980Z,2.07
2018-08-28T03:34:47.226Z,2.80
2018-08-28T03:37:15.694Z,2.60
2018-08-28T03:39:44.394Z,2.57
2018-08-28T03:42:12.817Z,2.80
2018-08-28T03:44:41.713Z,2.73
2018-08-28T03:47:10.245Z,3.00
2018-08-28T03:49:38.714Z,2.83
2018-08-28T03:52:07.510Z,2.20
2018-08-28T03:54:35.605Z,2.57
2018-08-28T03:57:04.490Z,2.17
2018-08-28T03:59:33.131Z,2.87
2018-08-28T04:02:02.858Z,2.60
2018-08-28T04:04:31.060Z,2.80
2018-08-28T04:06:59.641Z,3.07
2018-08-28T04:09:29.133Z,3.03
2018-08-28T04:11:57.582Z,3.30
2018-08-28T04:14:26.896Z,3.70
2018-08-28T04:16:55.899Z,3.37
2018-08-28T04:19:25.564Z,3.43
2018-08-28T04:21:54.530Z,3.60
2018-08-28T04:24:23.337Z,3.37
2018-08-28T04:26:51.574Z,3.00
2018-08-28T04:29:19.765Z,3.40
2018-08-28T04:31:47.934Z,2.83
2018-08-28T04:34:17.346Z,2.83
2018-08-28T04:36:47.026Z,2.47
2018-08-28T04:39:15.510Z,3.00
2018-08-28T04:41:43.640Z,3.30
2018-08-28T04:44:11.809Z,2.80
2018-08-28T04:46:41.429Z,3.97
2018-08-28T04:49:09.673Z,3.47
2018-08-28T04:51:38.813Z,3.63
2018-08-28T04:54:07.373Z,3.90
2018-08-28T04:56:36.119Z,4.37
2018-08-28T04:59:04.655Z,4.27
2018-08-28T05:01:33.602Z,3.73
2018-08-28T05:04:03.096Z,4.30
2018-08-28T05:06:31.307Z,4.20
2018-08-28T05:08:59.586Z,3.83
2018-08-28T05:11:27.742Z,3.83
2018-08-28T05:13:55.929Z,3.23
2018-08-28T05:16:24.053Z,3.50
2018-08-28T05:18:52.946Z,4.43
2018-08-28T05:21:21.547Z,3.03
2018-08-28T05:23:51.489Z,3.40
2018-08-28T05:26:20.790Z,2.80
2018-08-28T05:28:48.946Z,3.20
2018-08-28T05:31:17.086Z,3.03
2018-08-28T05:33:45.317Z,3.60
2018-08-28T05:36:14.829Z,3.12
2018-08-28T05:38:42.942Z,2.85
2018-08-28T05:41:11.038Z,3.10
2018-08-28T05:43:40.780Z,3.05
2018-08-28T05:46:09.253Z,2.80
2018-08-28T05:48:37.896Z,2.70
2018-08-28T05:51:06.501Z,2.83
2018-08-28T05:53:35.138Z,3.15
2018-08-28T05:56:03.932Z,3.20
2018-08-28T05:58:32.944Z,3.12
2018-08-28T06:01:01.393Z,3.00
2018-08-28T06:03:32.437Z,2.72
2018-08-28T06:06:00.717Z,2.45
2018-08-28T06:08:28.990Z,2.37
2018-08-28T06:10:57.121Z,2.65
2018-08-28T06:13:25.425Z,2.77
2018-08-28T06:15:53.546Z,2.40
2018-08-28T06:18:22.370Z,2.58
2018-08-28T06:20:50.866Z,2.67
2018-08-28T06:23:19.021Z,2.90
2018-08-28T06:25:47.999Z,2.77
2018-08-28T06:28:18.784Z,2.45
2018-08-28T06:30:47.985Z,2.62
2018-08-28T06:33:16.285Z,3.20
2018-08-28T06:35:44.385Z,2.92
2018-08-28T06:38:14.113Z,2.70
2018-08-28T06:40:43.846Z,2.45
2018-08-28T06:43:12.429Z,2.75
2018-08-28T06:45:40.640Z,3.33
2018-08-28T06:48:09.501Z,3.17
2018-08-28T06:50:37.669Z,2.80
2018-08-28T06:53:06.077Z,2.60
2018-08-28T06:55:34.634Z,2.25
2018-08-28T06:58:03.326Z,2.77
2018-08-28T07:00:31.606Z,2.25
2018-08-28T07:02:59.873Z,2.40
2018-08-28T07:05:29.144Z,2.62
2018-08-28T07:07:57.381Z,2.58
2018-08-28T07:10:27.250Z,2.10
2018-08-28T07:12:55.990Z,2.30
2018-08-28T07:15:24.151Z,2.65
2018-08-28T07:17:52.746Z,2.65
2018-08-28T07:20:20.901Z,2.50
2018-08-28T07:22:49.952Z,2.00
2018-08-28T07:25:18.665Z,2.12
2018-08-28T07:27:46.887Z,2.50
2018-08-28T07:30:15.764Z,2.92
2018-08-28T07:32:45.416Z,3.08
2018-08-28T07:35:13.493Z,2.65
2018-08-28T07:37:42.746Z,2.83
2018-08-28T07:40:11.353Z,2.62
2018-08-28T07:42:39.953Z,3.20
2018-08-28T07:45:10.750Z,2.27
2018-08-28T07:47:39.129Z,2.47
2018-08-28T07:50:07.718Z,2.50
2018-08-28T07:52:36.786Z,2.55
2018-08-28T07:55:06.095Z,2.90
2018-08-28T07:57:34.851Z,2.95
2018-08-28T08:00:03.096Z,2.90
2018-08-28T08:02:32.447Z,2.55
2018-08-28T08:05:00.725Z,2.72
2018-08-28T08:07:29.179Z,2.80
2018-08-28T08:09:57.295Z,2.85
2018-08-28T08:12:25.377Z,2.47
2018-08-28T08:14:54.033Z,3.30
2018-08-28T08:17:23.113Z,2.50
2018-08-28T08:19:51.277Z,2.80
2018-08-28T08:22:19.913Z,2.65
2018-08-28T08:24:48.551Z,2.52
2018-08-28T08:27:17.290Z,2.98
2018-08-28T08:29:46.094Z,2.02
2018-08-28T08:32:14.550Z,2.37
2018-08-28T08:34:43.588Z,2.62
2018-08-28T08:37:11.889Z,2.65
2018-08-28T08:39:40.473Z,2.00
2018-08-28T08:42:09.200Z,2.90
2018-08-28T08:44:37.862Z,2.45
2018-08-28T08:47:06.017Z,1.90
2018-08-28T08:49:34.705Z,1.77
2018-08-28T08:52:03.333Z,1.75
2018-08-28T08:54:31.801Z,1.40
2018-08-28T08:57:01.097Z,1.22
2018-08-28T08:59:29.233Z,1.85
2018-08-28T09:01:58.094Z,1.30
2018-08-28T09:04:26.845Z,1.20
2018-08-28T09:06:55.135Z,1.40
2018-08-28T09:09:24.298Z,1.27
2018-08-28T09:11:52.973Z,1.50
2018-08-28T09:14:21.854Z,1.35
2018-08-28T09:16:51.112Z,1.55
2018-08-28T09:19:21.057Z,1.40
2018-08-28T09:21:49.846Z,1.35
2018-08-28T09:24:17.997Z,1.30
2018-08-28T09:26:46.325Z,1.32
2018-08-28T09:29:14.706Z,1.45
2018-08-28T09:31:42.946Z,1.20
2018-08-28T09:34:11.100Z,1.37
2018-08-28T09:36:40.081Z,1.05
2018-08-28T09:39:09.793Z,1.20
2018-08-28T09:41:38.519Z,1.00
2018-08-28T09:44:07.095Z,1.00
2018-08-28T09:46:35.181Z,1.10
2018-08-28T09:49:03.915Z,1.12
2018-08-28T09:51:32.139Z,1.20
2018-08-28T09:54:00.485Z,1.10
2018-08-28T09:56:28.651Z,1.05
2018-08-28T09:58:56.865Z,1.22
2018-08-28T10:01:30.433Z,0.88
2018-08-28T10:03:59.117Z,1.27
2018-08-28T10:06:28.864Z,1.32
2018-08-28T10:08:57.465Z,1.30
2018-08-28T10:11:26.074Z,1.30
2018-08-28T10:13:54.290Z,0.90
2018-08-28T10:16:22.683Z,1.50
2018-08-28T10:18:51.350Z,1.25
2018-08-28T10:21:20.422Z,1.45
2018-08-28T10:23:49.649Z,1.47
2018-08-28T10:26:18.470Z,1.50
2018-08-28T10:28:47.956Z,1.45
2018-08-28T10:31:16.089Z,1.95
2018-08-28T10:33:44.317Z,1.57
2018-08-28T10:36:12.969Z,1.10
2018-08-28T10:38:41.880Z,1.10
2018-08-28T10:41:10.031Z,1.10
2018-08-28T10:43:38.794Z,1.42
2018-08-28T10:46:08.199Z,1.00
2018-08-28T10:48:37.434Z,1.15
2018-08-28T10:51:07.490Z,0.85
2018-08-28T10:53:36.511Z,1.75
2018-08-28T10:56:04.713Z,1.20
2018-08-28T10:58:33.566Z,1.00
2018-08-28T11:01:01.592Z,0.95
2018-08-28T11:03:30.086Z,1.50
2018-08-28T11:05:58.909Z,0.80
2018-08-28T11:08:27.113Z,1.10
2018-08-28T11:10:55.297Z,0.95
2018-08-28T11:13:24.200Z,1.00
2018-08-28T11:15:52.414Z,0.82
2018-08-28T11:18:20.970Z,1.05
2018-08-28T11:20:50.082Z,1.10
2018-08-28T11:23:18.551Z,1.20
2018-08-28T11:25:46.705Z,1.20
2018-08-28T11:28:14.841Z,1.15
2018-08-28T11:30:43.752Z,1.12
2018-08-28T11:33:12.034Z,1.32
2018-08-28T11:35:40.271Z,0.98
2018-08-28T11:38:08.710Z,1.20
2018-08-28T11:40:36.923Z,1.00
2018-08-28T11:43:05.999Z,0.90
2018-08-28T11:45:34.098Z,0.95
2018-08-28T11:48:02.238Z,1.10
2018-08-28T11:50:30.790Z,1.30
2018-08-28T11:52:59.011Z,1.45
2018-08-28T11:55:27.138Z,1.02
2018-08-28T11:57:55.631Z,1.40
2018-08-28T12:00:23.805Z,1.20
2018-08-28T12:02:52.811Z,0.95
2018-08-28T12:05:20.984Z,1.00
2018-08-28T12:07:50.408Z,1.00
2018-08-28T12:10:18.721Z,1.10
2018-08-28T12:12:46.972Z,1.02
2018-08-28T12:15:15.382Z,1.20
2018-08-28T12:17:43.653Z,1.20
2018-08-28T12:20:11.970Z,0.98
2018-08-28T12:22:40.038Z,0.80
2018-08-28T12:25:09.870Z,0.95
2018-08-28T12:27:38.246Z,1.27
2018-08-28T12:30:08.569Z,0.80
2018-08-28T12:32:36.817Z,1.10
2018-08-28T12:35:06.218Z,1.00
2018-08-28T12:37:34.546Z,1.27
2018-08-28T12:40:03.517Z,1.00
2018-08-28T12:42:32.415Z,1.20
2018-08-28T12:45:03.698Z,1.00
2018-08-28T12:47:32.350Z,1.20
2018-08-28T12:50:00.498Z,1.37
2018-08-28T12:52:28.565Z,1.20
2018-08-28T12:54:57.480Z,1.20
2018-08-28T12:57:27.610Z,1.20
2018-08-28T12:59:56.230Z,1.20
2018-08-28T13:02:24.804Z,1.47
2018-08-28T13:04:52.890Z,1.20
2018-08-28T13:07:21.893Z,1.37
2018-08-28T13:09:50.522Z,1.42
2018-08-28T13:12:19.525Z,0.95
2018-08-28T13:14:49.032Z,1.32
2018-08-28T13:17:17.101Z,1.22
2018-08-28T13:19:46.273Z,1.50
2018-08-28T13:22:16.288Z,1.12
2018-08-28T13:24:45.210Z,1.30
2018-08-28T13:27:13.613Z,1.20
2018-08-28T13:29:43.518Z,1.90
2018-08-28T13:32:11.613Z,1.30
2018-08-28T13:34:40.444Z,1.20
2018-08-28T13:37:08.537Z,1.60
2018-08-28T13:39:37.207Z,1.40
2018-08-28T13:42:06.100Z,1.40
2018-08-28T13:44:35.217Z,1.40
2018-08-28T13:47:04.758Z,1.47
2018-08-28T13:49:33.389Z,1.32
2018-08-28T13:52:02.400Z,1.32
2018-08-28T13:54:31.123Z,1.50
2018-08-28T13:56:59.744Z,1.15
2018-08-28T13:59:28.741Z,1.15
2018-08-28T14:01:57.331Z,1.42
2018-08-28T14:04:26.386Z,1.47
2018-08-28T14:06:55.490Z,1.27
2018-08-28T14:09:25.566Z,1.20
2018-08-28T14:11:54.018Z,1.25
2018-08-28T14:14:24.376Z,1.25
2018-08-28T14:16:52.765Z,1.45
2018-08-28T14:19:21.786Z,1.52
2018-08-28T14:21:50.638Z,1.30
2018-08-28T14:24:19.718Z,1.40
2018-08-28T14:26:47.901Z,1.42
2018-08-28T14:29:16.364Z,1.37
2018-08-28T14:31:44.792Z,1.40
2018-08-28T14:34:13.081Z,1.40
2018-08-28T14:36:41.703Z,1.50
2018-08-28T14:39:10.222Z,1.70
2018-08-28T14:41:38.441Z,1.55
2018-08-28T14:44:07.211Z,1.70
2018-08-28T14:46:35.290Z,1.30
2018-08-28T14:49:05.035Z,1.80
2018-08-28T14:51:33.285Z,1.82
2018-08-28T14:54:02.598Z,1.30
2018-08-28T14:56:32.122Z,1.30
2018-08-28T14:59:06.303Z,1.47
2018-08-28T15:01:34.537Z,2.00
2018-08-28T15:04:03.502Z,1.60
2018-08-28T15:06:32.339Z,1.40
2018-08-28T15:09:01.819Z,1.40
2018-08-28T15:11:30.595Z,1.37
2018-08-28T15:13:58.707Z,1.72
2018-08-28T15:16:27.196Z,1.70
2018-08-28T15:18:55.715Z,1.62
2018-08-28T15:21:24.238Z,1.60
2018-08-28T15:23:53.158Z,1.50
2018-08-28T15:26:21.686Z,1.80
2018-08-28T15:28:50.553Z,2.02
2018-08-28T15:31:19.264Z,1.92
2018-08-28T15:33:47.965Z,1.60
2018-08-28T15:36:17.131Z,2.00
2018-08-28T15:38:45.375Z,1.90
2018-08-28T15:41:14.233Z,1.80
2018-08-28T15:44:47.129Z,1.82
2018-08-28T15:47:15.706Z,1.80
2018-08-28T15:49:44.401Z,1.72
2018-08-28T15:52:13.301Z,1.70
2018-08-28T15:54:41.449Z,1.40
2018-08-28T15:57:10.126Z,2.22
2018-08-28T15:59:54.282Z,1.57
2018-08-28T16:02:23.178Z,2.22
2018-08-28T16:04:51.302Z,1.70
2018-08-28T16:07:19.407Z,1.57
2018-08-28T16:09:47.634Z,1.70
2018-08-28T16:12:16.083Z,1.95
2018-08-28T16:14:44.442Z,1.95
2018-08-28T16:17:12.701Z,1.85
2018-08-28T16:19:40.865Z,1.80
2018-08-28T16:22:08.986Z,1.72
2018-08-28T16:24:37.239Z,2.22
2018-08-28T16:27:05.516Z,1.80
2018-08-28T16:29:33.642Z,2.77
2018-08-28T16:32:01.786Z,1.67
2018-08-28T16:34:30.950Z,2.08
2018-08-28T16:37:00.161Z,1.70
2018-08-28T16:39:28.867Z,1.72
2018-08-28T16:41:57.092Z,1.65
2018-08-28T16:44:26.881Z,2.05
2018-08-28T16:46:55.105Z,1.75
2018-08-28T16:49:23.205Z,1.98
2018-08-28T16:51:52.200Z,1.65
2018-08-28T16:54:20.984Z,2.12
2018-08-28T16:56:49.342Z,1.75
2018-08-28T16:59:17.910Z,1.90
2018-08-28T17:01:47.339Z,1.95
2018-08-28T17:04:15.626Z,1.95
2018-08-28T17:06:44.025Z,2.87
2018-08-28T17:09:12.362Z,2.42
2018-08-28T17:11:40.449Z,3.20
2018-08-28T17:14:08.638Z,2.72
2018-08-28T17:16:37.962Z,2.30
2018-08-28T17:19:06.539Z,2.15
2018-08-28T17:21:34.559Z,2.20
2018-08-28T17:24:03.294Z,2.30
2018-08-28T17:26:31.377Z,1.87
2018-08-28T17:28:59.738Z,1.90
2018-08-28T17:31:29.089Z,2.00
2018-08-28T17:33:57.437Z,2.40
2018-08-28T17:36:26.382Z,2.40
2018-08-28T17:38:54.847Z,2.17
2018-08-28T17:41:23.841Z,2.30
2018-08-28T17:43:52.014Z,2.33
2018-08-28T17:46:20.972Z,2.20
2018-08-28T17:48:49.239Z,2.50
2018-08-28T17:51:17.845Z,2.08
2018-08-28T17:53:45.993Z,2.30
2018-08-28T17:56:15.058Z,2.05
2018-08-28T17:58:43.421Z,2.20
2018-08-28T18:01:11.539Z,2.22
2018-08-28T18:03:40.489Z,2.02
2018-08-28T18:06:10.479Z,1.67
2018-08-28T18:08:38.765Z,2.12
2018-08-28T18:11:07.102Z,2.10
2018-08-28T18:13:35.820Z,2.33
2018-08-28T18:16:04.345Z,2.75
2018-08-28T18:18:32.598Z,2.55
2018-08-28T18:21:02.104Z,2.67
2018-08-28T18:23:30.494Z,2.33
2018-08-28T18:25:59.057Z,2.22
2018-08-28T18:28:27.519Z,2.60
2018-08-28T18:30:56.561Z,2.42
2018-08-28T18:33:25.017Z,2.50
2018-08-28T18:35:55.551Z,2.40
2018-08-28T18:38:25.379Z,2.87
2018-08-28T18:40:54.896Z,2.83
2018-08-28T18:43:22.917Z,2.37
2018-08-28T18:45:51.535Z,2.85
2018-08-28T18:48:20.906Z,2.90
2018-08-28T18:50:49.413Z,2.72
2018-08-28T18:53:18.727Z,2.70
2018-08-28T18:55:46.826Z,2.80
2018-08-28T18:58:15.995Z,3.12
2018-08-28T19:00:44.362Z,2.10
2018-08-28T19:03:12.519Z,2.50
2018-08-28T19:05:40.666Z,2.52
2018-08-28T19:08:08.980Z,4.53
2018-08-28T19:10:37.758Z,5.17
2018-08-28T19:13:06.615Z,4.17
2018-08-28T19:15:35.541Z,3.83
2018-08-28T19:18:04.665Z,3.25
2018-08-28T19:20:32.887Z,3.17
2018-08-28T19:23:01.813Z,3.15
2018-08-28T19:25:30.056Z,2.92
2018-08-28T19:27:58.339Z,2.80
2018-08-28T19:30:28.077Z,3.27
2018-08-28T19:32:56.801Z,3.27
2018-08-28T19:35:24.878Z,3.15
2018-08-28T19:37:54.034Z,2.55
2018-08-28T19:40:22.217Z,2.70
2018-08-28T19:42:51.525Z,2.22
2018-08-28T19:45:19.922Z,2.30
2018-08-28T19:47:48.612Z,2.65
2018-08-28T19:50:17.382Z,2.40
2018-08-28T19:52:45.751Z,2.30
2018-08-28T19:55:13.875Z,2.33
2018-08-28T19:57:42.014Z,2.60
2018-08-28T20:00:10.577Z,2.20
2018-08-28T20:02:38.923Z,2.60
2018-08-28T20:05:07.218Z,2.65
2018-08-28T20:07:37.872Z,2.75
2018-08-28T20:10:06.218Z,3.00
2018-08-28T20:12:35.409Z,2.90
2018-08-28T20:15:04.610Z,2.25
2018-08-28T20:17:32.705Z,2.92
2018-08-28T20:20:01.725Z,2.50
2018-08-28T20:22:29.939Z,2.22
2018-08-28T20:24:58.565Z,2.65
2018-08-28T20:27:26.897Z,2.92
2018-08-28T20:29:55.557Z,2.72
2018-08-28T20:32:23.601Z,2.47
2018-08-28T20:34:51.918Z,2.25
2018-08-28T20:37:20.467Z,3.05
2018-08-28T20:39:49.450Z,2.80
2018-08-28T20:42:17.556Z,2.70
2018-08-28T20:44:45.654Z,2.45
2018-08-28T20:47:14.029Z,3.05
2018-08-28T20:49:42.283Z,3.33
2018-08-28T20:52:11.054Z,2.85
2018-08-28T20:54:40.965Z,2.87
2018-08-28T20:57:10.238Z,2.92
2018-08-28T20:59:39.163Z,2.92
2018-08-28T21:02:07.369Z,2.17
2018-08-28T21:04:36.597Z,2.50
2018-08-28T21:07:05.132Z,2.42
2018-08-28T21:09:34.079Z,2.80
2018-08-28T21:12:02.681Z,2.70
2018-08-28T21:14:30.749Z,2.85
2018-08-28T21:16:58.951Z,3.02
2018-08-28T21:19:27.699Z,2.70
2018-08-28T21:21:55.958Z,3.10
2018-08-28T21:24:24.591Z,2.75
2018-08-28T21:26:53.927Z,2.55
2018-08-28T21:29:22.197Z,2.40
2018-08-28T21:31:51.476Z,2.90
2018-08-28T21:34:20.534Z,2.95
2018-08-28T21:36:49.886Z,2.98
2018-08-28T21:39:17.997Z,2.80
2018-08-28T21:41:46.603Z,2.70
2018-08-28T21:44:15.317Z,2.72
2018-08-28T21:46:43.409Z,2.80
2018-08-28T21:49:12.155Z,3.10
2018-08-28T21:51:40.683Z,2.92
2018-08-28T21:54:08.814Z,3.05
2018-08-28T21:56:36.942Z,3.33
2018-08-28T21:59:05.206Z,3.45
2018-08-28T22:01:33.505Z,3.33
2018-08-28T22:04:01.886Z,2.87
2018-08-28T22:06:35.247Z,3.27
2018-08-28T22:09:05.125Z,3.00
2018-08-28T22:11:33.362Z,3.00
2018-08-28T22:14:01.514Z,3.00
2018-08-28T22:16:29.801Z,2.58
2018-08-28T22:19:03.184Z,3.65
2018-08-28T22:21:32.113Z,2.60
2018-08-28T22:24:00.368Z,2.87
2018-08-28T22:26:29.000Z,3.12
2018-08-28T22:28:57.254Z,3.00
2018-08-28T22:31:26.373Z,2.98
2018-08-28T22:33:55.670Z,3.27
2018-08-28T22:36:24.585Z,3.15
2018-08-28T22:38:53.933Z,2.95
2018-08-28T22:41:22.053Z,3.02
2018-08-28T22:43:50.533Z,3.17
2018-08-28T22:46:18.779Z,3.85
2018-08-28T22:48:47.802Z,3.00
2018-08-28T22:51:16.816Z,3.08
2018-08-28T22:53:45.585Z,3.70
2018-08-28T22:56:13.683Z,3.87
2018-08-28T22:58:43.356Z,4.05
2018-08-28T23:01:11.559Z,4.08
2018-08-28T23:03:39.731Z,3.42
2018-08-28T23:06:08.628Z,3.77
2018-08-28T23:08:37.349Z,3.80
2018-08-28T23:11:05.578Z,3.62
2018-08-28T23:13:33.880Z,3.60
2018-08-28T23:16:04.296Z,3.12
2018-08-28T23:18:33.073Z,3.15
2018-08-28T23:21:02.196Z,3.87
2018-08-28T23:23:31.235Z,3.25
2018-08-28T23:25:59.589Z,3.58
2018-08-28T23:28:27.702Z,3.35
2018-08-28T23:30:55.769Z,3.50
2018-08-28T23:33:24.453Z,3.62
2018-08-28T23:35:53.745Z,3.45
2018-08-28T23:38:22.833Z,3.08
2018-08-28T23:40:51.558Z,3.67
2018-08-28T23:43:20.514Z,3.50
2018-08-28T23:45:49.016Z,3.30
2018-08-28T23:48:17.593Z,3.02
2018-08-28T23:50:46.041Z,3.33
2018-08-28T23:53:14.922Z,3.70
2018-08-28T23:55:43.602Z,3.55
2018-08-28T23:58:12.802Z,3.58
